Time;durP1;ratioP1;P1;durP2;ratioP2;P2;SDS_P1;SDS_P2;PMS_P1;PMS_P2;Temp;Humidity;BMP_temperature;BMP_pressure;BME280_temperature;BME280_humidity;BME280_pressure;Samples;Min_cycle;Max_cycle;Signal;HPM_P1;HPM_P2
2022/03/03 00:01:50;;;;;;;35.73;19.73;;;3.00;99.90;;;;;;5010103;28;20239;-45
2022/03/03 00:04:18;;;;;;;33.17;19.07;;;2.90;99.90;;;;;;4984776;28;20663;-45
2022/03/03 00:06:45;;;;;;;40.00;20.70;;;2.70;99.90;;;;;;5002034;28;20276;-45
2022/03/03 00:09:12;;;;;;;36.53;18.63;;;2.50;99.90;;;;;;4996215;28;20281;-45
2022/03/03 00:11:39;;;;;;;39.60;21.20;;;2.40;99.90;;;;;;4985922;28;20236;-45
2022/03/03 00:14:06;;;;;;;36.17;19.33;;;2.40;99.90;;;;;;5011888;28;20214;-45
2022/03/03 00:16:34;;;;;;;37.10;20.67;;;2.40;99.90;;;;;;4990468;28;20206;-45
2022/03/03 00:19:01;;;;;;;38.23;20.73;;;2.40;99.90;;;;;;5002151;28;20222;-45
2022/03/03 00:21:28;;;;;;;36.83;20.13;;;2.40;99.90;;;;;;5006499;28;20287;-45
2022/03/03 00:23:55;;;;;;;39.40;21.27;;;2.50;99.90;;;;;;5014810;28;20481;-45
2022/03/03 00:26:22;;;;;;;38.37;20.30;;;2.50;99.90;;;;;;4992585;28;20203;-45
2022/03/03 00:28:50;;;;;;;34.30;19.70;;;2.50;99.90;;;;;;5014323;28;20236;-45
2022/03/03 00:31:16;;;;;;;36.50;19.87;;;2.40;99.90;;;;;;4979830;28;20340;-46
2022/03/03 00:33:45;;;;;;;47.43;21.87;;;2.60;99.90;;;;;;5006619;28;20528;-45
2022/03/03 00:36:12;;;;;;;36.37;20.87;;;2.50;99.90;;;;;;5006168;28;20208;-47
2022/03/03 00:38:39;;;;;;;37.20;19.63;;;2.50;99.90;;;;;;5001266;28;20255;-45
2022/03/03 00:41:06;;;;;;;38.40;20.50;;;2.30;99.90;;;;;;4991614;28;20263;-47
2022/03/03 00:43:33;;;;;;;34.60;19.17;;;2.20;99.90;;;;;;5003575;28;20250;-45
2022/03/03 00:45:59;;;;;;;37.37;20.03;;;2.10;99.90;;;;;;5001970;28;20284;-47
2022/03/03 00:48:26;;;;;;;37.67;21.23;;;2.00;99.90;;;;;;4995295;28;20285;-47
2022/03/03 00:50:55;;;;;;;39.83;20.83;;;1.90;99.90;;;;;;4993691;28;20298;-47
2022/03/03 00:53:23;;;;;;;40.40;20.63;;;1.90;99.90;;;;;;4989976;28;20197;-44
2022/03/03 00:55:50;;;;;;;30.43;18.93;;;1.80;99.90;;;;;;4994640;28;20204;-45
2022/03/03 00:58:17;;;;;;;36.33;18.70;;;1.70;99.90;;;;;;5013903;28;20215;-45
2022/03/03 01:00:44;;;;;;;33.50;19.67;;;1.70;99.90;;;;;;4980153;28;20303;-43
2022/03/03 01:03:10;;;;;;;39.17;21.03;;;1.60;99.90;;;;;;5012325;28;20231;-45
2022/03/03 01:05:37;;;;;;;35.77;19.10;;;1.60;99.90;;;;;;5012324;28;20666;-45
2022/03/03 01:08:10;;;;;;;37.63;20.23;;;1.50;99.90;;;;;;5003096;28;20282;-45
2022/03/03 01:10:37;;;;;;;39.47;19.33;;;1.50;99.90;;;;;;5006334;28;20410;-46
2022/03/03 01:13:04;;;;;;;36.60;19.63;;;1.60;99.90;;;;;;5019092;28;20228;-44
2022/03/03 01:15:31;;;;;;;42.27;20.43;;;1.50;99.90;;;;;;4989907;28;20281;-45
2022/03/03 01:17:58;;;;;;;40.73;20.20;;;1.50;99.90;;;;;;4988473;28;20782;-45
2022/03/03 01:20:27;;;;;;;34.70;18.97;;;1.50;99.90;;;;;;5009385;28;20212;-45
2022/03/03 01:22:54;;;;;;;35.53;19.63;;;1.50;99.90;;;;;;5001498;28;20234;-46
2022/03/03 01:25:22;;;;;;;39.17;19.80;;;1.60;99.90;;;;;;5009408;28;20212;-45
2022/03/03 01:27:49;;;;;;;35.63;20.17;;;1.70;99.90;;;;;;4984699;28;20215;-45
2022/03/03 01:30:16;;;;;;;38.83;19.90;;;1.60;99.90;;;;;;5002341;28;20213;-45
2022/03/03 01:32:43;;;;;;;44.33;20.20;;;1.60;99.90;;;;;;4993196;28;20323;-46
2022/03/03 01:35:11;;;;;;;35.70;20.13;;;1.60;99.90;;;;;;5010684;28;20789;-45
2022/03/03 01:37:37;;;;;;;37.50;20.90;;;1.70;99.90;;;;;;4997662;28;20233;-45
2022/03/03 01:40:06;;;;;;;44.03;21.97;;;1.70;99.90;;;;;;4992534;28;20219;-46
2022/03/03 01:42:35;;;;;;;40.13;20.67;;;1.80;99.90;;;;;;4997459;28;20236;-45
2022/03/03 01:45:01;;;;;;;41.37;21.13;;;1.80;99.90;;;;;;5003490;28;20266;-45
2022/03/03 01:47:29;;;;;;;43.57;23.03;;;1.80;99.90;;;;;;4986826;28;20206;-44
2022/03/03 01:49:57;;;;;;;39.63;19.57;;;1.60;99.90;;;;;;4997672;28;20503;-45
2022/03/03 01:52:25;;;;;;;36.20;20.80;;;1.40;99.90;;;;;;4993051;28;20243;-45
2022/03/03 01:54:52;;;;;;;36.67;20.17;;;1.30;99.90;;;;;;5003867;28;20288;-47
2022/03/03 01:57:22;;;;;;;37.20;19.10;;;1.10;99.90;;;;;;4998617;28;20313;-45
2022/03/03 01:59:50;;;;;;;36.47;18.83;;;1.00;99.90;;;;;;4989055;28;20206;-47
2022/03/03 02:02:17;;;;;;;40.40;20.13;;;0.90;99.90;;;;;;4980697;28;20580;-45
2022/03/03 02:04:44;;;;;;;32.17;20.13;;;0.90;99.90;;;;;;5001349;28;20580;-46
2022/03/03 02:07:11;;;;;;;35.73;19.60;;;0.70;99.90;;;;;;4998128;28;20341;-45
2022/03/03 02:09:40;;;;;;;37.43;19.43;;;0.70;99.90;;;;;;5003888;28;20271;-46
2022/03/03 02:12:08;;;;;;;42.63;21.00;;;0.60;99.90;;;;;;4973797;28;20220;-44
2022/03/03 02:14:42;;;;;;;37.07;19.50;;;0.60;99.90;;;;;;5004208;28;20209;-45
2022/03/03 02:17:10;;;;;;;39.00;21.10;;;0.50;99.90;;;;;;5010861;28;20202;-45
2022/03/03 02:19:37;;;;;;;36.37;20.13;;;0.60;99.90;;;;;;4988717;28;20214;-45
2022/03/03 02:22:06;;;;;;;38.83;20.53;;;0.60;99.90;;;;;;4994605;28;20336;-45
2022/03/03 02:24:33;;;;;;;41.40;20.93;;;0.60;99.90;;;;;;5007362;28;20266;-44
2022/03/03 02:27:01;;;;;;;41.40;21.10;;;0.60;99.90;;;;;;4986807;28;20208;-46
2022/03/03 02:29:28;;;;;;;42.63;22.57;;;0.60;99.90;;;;;;4996547;28;20401;-49
2022/03/03 02:31:55;;;;;;;40.30;21.27;;;0.60;99.90;;;;;;4996390;28;20311;-45
2022/03/03 02:34:22;;;;;;;44.03;21.13;;;0.60;99.90;;;;;;4996138;28;20213;-45
2022/03/03 02:36:49;;;;;;;44.83;22.70;;;0.60;99.90;;;;;;4991575;28;20516;-46
2022/03/03 02:39:18;;;;;;;46.87;22.47;;;0.60;99.90;;;;;;5004749;28;20229;-46
2022/03/03 02:41:45;;;;;;;39.57;21.40;;;0.60;99.90;;;;;;4992365;28;20308;-44
2022/03/03 02:44:12;;;;;;;47.90;22.10;;;0.70;99.90;;;;;;5002984;28;20225;-45
2022/03/03 02:46:39;;;;;;;44.43;22.27;;;0.90;99.90;;;;;;5000381;28;20218;-49
2022/03/03 02:49:06;;;;;;;45.27;23.00;;;1.00;99.90;;;;;;5019240;28;20266;-45
2022/03/03 02:51:32;;;;;;;43.73;22.90;;;1.00;99.90;;;;;;4991984;28;20224;-43
2022/03/03 02:54:00;;;;;;;45.47;21.77;;;0.80;99.90;;;;;;5019355;28;20226;-45
2022/03/03 02:56:28;;;;;;;43.20;22.93;;;0.80;99.90;;;;;;4991089;28;20207;-45
2022/03/03 02:58:55;;;;;;;47.77;22.73;;;0.80;99.90;;;;;;5012164;28;20283;-44
2022/03/03 03:01:22;;;;;;;51.37;22.83;;;0.80;99.90;;;;;;4989234;28;20469;-45
2022/03/03 03:03:49;;;;;;;47.13;23.57;;;0.90;99.90;;;;;;5001330;28;20231;-44
2022/03/03 03:06:16;;;;;;;49.13;25.10;;;1.00;99.90;;;;;;5000102;28;20239;-44
2022/03/03 03:08:43;;;;;;;48.77;24.43;;;0.90;99.90;;;;;;5004096;28;20213;-45
2022/03/03 03:11:10;;;;;;;47.27;23.67;;;1.00;99.90;;;;;;5005298;28;20582;-43
2022/03/03 03:13:38;;;;;;;48.77;24.70;;;0.90;99.90;;;;;;5006108;28;20234;-44
2022/03/03 03:16:06;;;;;;;46.87;24.50;;;0.90;99.90;;;;;;4997894;28;20342;-46
2022/03/03 03:18:33;;;;;;;46.93;23.97;;;1.00;99.90;;;;;;5019373;28;20212;-45
2022/03/03 03:21:00;;;;;;;51.03;24.07;;;1.00;99.90;;;;;;5002226;28;20672;-45
2022/03/03 03:23:27;;;;;;;47.40;22.63;;;1.00;99.90;;;;;;4984962;28;20222;-45
2022/03/03 03:25:55;;;;;;;49.57;25.27;;;1.00;99.90;;;;;;5007381;28;20213;-45
2022/03/03 03:28:23;;;;;;;47.67;23.40;;;1.00;99.90;;;;;;4996114;28;20210;-45
2022/03/03 03:30:52;;;;;;;45.30;22.73;;;1.00;99.90;;;;;;5006875;28;20269;-45
2022/03/03 03:33:19;;;;;;;45.57;23.37;;;1.00;99.90;;;;;;5015517;28;20211;-44
2022/03/03 03:39:08;;;;;;;41.37;23.00;;;1.00;99.90;;;;;;4985469;28;20755;-44
2022/03/03 03:41:35;;;;;;;43.00;22.10;;;1.00;99.90;;;;;;5012838;28;20236;-44
2022/03/03 03:44:02;;;;;;;48.83;24.07;;;1.00;99.90;;;;;;4983424;28;20299;-45
2022/03/03 03:46:30;;;;;;;48.63;24.10;;;1.00;99.90;;;;;;4974555;28;20332;-44
2022/03/03 03:48:57;;;;;;;46.63;23.13;;;0.90;99.90;;;;;;5018358;28;20237;-44
2022/03/03 03:51:23;;;;;;;46.63;23.27;;;0.90;99.90;;;;;;5010224;28;20606;-44
2022/03/03 03:53:50;;;;;;;47.23;23.57;;;0.70;99.90;;;;;;5002153;28;20516;-45
2022/03/03 03:56:17;;;;;;;48.90;23.50;;;0.70;99.90;;;;;;4998475;28;20565;-46
2022/03/03 03:58:44;;;;;;;46.57;22.77;;;0.70;99.90;;;;;;4993207;28;20425;-46
2022/03/03 04:01:11;;;;;;;46.33;23.03;;;0.70;99.90;;;;;;5001112;28;20210;-46
2022/03/03 04:03:39;;;;;;;52.73;24.03;;;0.70;99.90;;;;;;4993974;28;20234;-44
2022/03/03 04:06:06;;;;;;;48.03;23.37;;;0.70;99.90;;;;;;5006159;28;20253;-46
2022/03/03 04:08:34;;;;;;;48.00;23.57;;;0.70;99.90;;;;;;5009871;28;20300;-44
2022/03/03 04:11:02;;;;;;;46.10;22.87;;;0.80;99.90;;;;;;4968350;28;20225;-44
2022/03/03 04:13:29;;;;;;;48.83;23.97;;;0.80;99.90;;;;;;4999762;28;20237;-46
2022/03/03 04:15:56;;;;;;;46.83;23.77;;;0.70;99.90;;;;;;4993658;28;20281;-45
2022/03/03 04:18:22;;;;;;;45.20;23.00;;;0.70;99.90;;;;;;4995497;28;20209;-46
2022/03/03 04:20:51;;;;;;;48.47;24.07;;;0.70;99.90;;;;;;5013626;28;20335;-46
2022/03/03 04:23:19;;;;;;;49.47;24.53;;;0.80;99.90;;;;;;5000083;28;20210;-46
2022/03/03 04:25:46;;;;;;;50.27;24.50;;;0.80;99.90;;;;;;4987763;28;20292;-46
2022/03/03 04:28:13;;;;;;;46.13;24.63;;;0.80;99.90;;;;;;4997802;28;20633;-44
2022/03/03 04:30:39;;;;;;;49.03;23.30;;;0.90;99.90;;;;;;5004962;28;20210;-47
2022/03/03 04:33:06;;;;;;;46.07;23.97;;;0.80;99.90;;;;;;4995779;28;20401;-45
2022/03/03 04:35:33;;;;;;;49.10;23.50;;;0.80;99.90;;;;;;5004805;28;20278;-45
2022/03/03 04:38:01;;;;;;;48.93;24.30;;;0.80;99.90;;;;;;5008613;28;20419;-45
2022/03/03 04:40:28;;;;;;;44.20;23.20;;;0.80;99.90;;;;;;4994253;28;20290;-44
2022/03/03 04:42:55;;;;;;;46.30;23.47;;;0.80;99.90;;;;;;5003082;28;20580;-49
2022/03/03 04:45:22;;;;;;;46.03;22.87;;;0.70;99.90;;;;;;4998375;28;20299;-47
2022/03/03 04:47:50;;;;;;;43.40;23.13;;;0.60;99.90;;;;;;4990568;28;20452;-47
2022/03/03 04:50:16;;;;;;;43.47;24.10;;;0.50;99.90;;;;;;4993529;28;20210;-44
2022/03/03 04:52:43;;;;;;;42.33;21.30;;;0.40;99.90;;;;;;4995721;28;20309;-43
2022/03/03 04:55:12;;;;;;;44.83;22.73;;;0.20;99.90;;;;;;4988993;28;21402;-45
2022/03/03 04:57:39;;;;;;;50.00;24.57;;;0.20;99.90;;;;;;5010027;28;20214;-45
2022/03/03 05:00:07;;;;;;;47.37;23.97;;;0.10;99.90;;;;;;4996075;28;20213;-45
2022/03/03 05:02:34;;;;;;;50.70;22.73;;;0.10;99.90;;;;;;4996857;28;20577;-44
2022/03/03 05:05:01;;;;;;;45.47;23.23;;;0.00;99.90;;;;;;4987227;28;20227;-44
2022/03/03 05:07:28;;;;;;;48.30;23.93;;;0.00;99.90;;;;;;5012292;28;20208;-45
2022/03/03 05:09:55;;;;;;;43.03;22.60;;;0.00;99.90;;;;;;5005288;28;20209;-45
2022/03/03 05:12:23;;;;;;;49.93;23.57;;;-0.10;99.90;;;;;;4983403;28;20225;-45
2022/03/03 05:14:50;;;;;;;50.93;25.57;;;-0.10;99.90;;;;;;4987421;28;20509;-45
2022/03/03 05:17:17;;;;;;;53.07;25.87;;;-0.10;99.90;;;;;;4983624;28;20916;-44
2022/03/03 05:19:44;;;;;;;49.50;24.70;;;0.00;99.90;;;;;;4991565;28;20210;-48
2022/03/03 05:22:11;;;;;;;56.60;26.77;;;0.20;99.90;;;;;;5009425;28;20586;-43
2022/03/03 05:24:38;;;;;;;50.87;24.63;;;0.30;99.90;;;;;;5005364;28;20474;-48
2022/03/03 05:27:05;;;;;;;50.87;24.87;;;0.30;99.90;;;;;;4986115;28;20214;-46
2022/03/03 05:29:34;;;;;;;52.37;25.37;;;0.40;99.90;;;;;;4989160;28;20516;-43
2022/03/03 05:32:02;;;;;;;52.37;25.40;;;0.30;99.90;;;;;;4998698;28;20325;-48
2022/03/03 05:34:28;;;;;;;54.83;26.30;;;0.70;99.90;;;;;;4992956;28;20447;-43
2022/03/03 05:36:55;;;;;;;50.17;24.83;;;0.50;99.90;;;;;;5007585;28;20450;-46
2022/03/03 05:39:24;;;;;;;55.13;26.07;;;0.50;99.90;;;;;;4976031;28;20214;-46
2022/03/03 05:41:50;;;;;;;56.50;26.73;;;0.50;99.90;;;;;;4995423;28;20230;-44
2022/03/03 05:44:17;;;;;;;54.33;25.80;;;0.60;99.90;;;;;;4968824;28;20238;-44
2022/03/03 05:46:47;;;;;;;49.80;25.93;;;0.60;99.90;;;;;;4994565;28;20213;-44
2022/03/03 05:49:16;;;;;;;46.83;25.33;;;0.50;99.90;;;;;;4994794;28;20395;-44
2022/03/03 05:51:43;;;;;;;45.53;24.73;;;0.40;99.90;;;;;;4982505;28;20233;-44
2022/03/03 05:54:10;;;;;;;51.27;25.27;;;0.30;99.90;;;;;;5006504;28;20393;-49
2022/03/03 05:56:39;;;;;;;44.97;24.03;;;0.30;99.90;;;;;;4988969;28;20296;-43
2022/03/03 05:59:08;;;;;;;45.57;23.30;;;0.30;99.90;;;;;;4975617;28;20581;-47
2022/03/03 06:01:38;;;;;;;48.30;23.40;;;0.30;99.90;;;;;;5004917;28;20226;-45
2022/03/03 06:04:10;;;;;;;46.43;24.03;;;0.20;99.90;;;;;;4998334;28;20620;-45
2022/03/03 06:06:38;;;;;;;47.63;25.10;;;0.20;99.90;;;;;;4997528;28;20203;-45
2022/03/03 06:09:10;;;;;;;47.57;23.80;;;0.10;99.90;;;;;;4991151;28;20210;-45
2022/03/03 06:11:46;;;;;;;48.87;24.70;;;0.10;99.90;;;;;;4993154;28;20224;-47
2022/03/03 06:14:16;;;;;;;44.87;24.33;;;0.00;99.90;;;;;;4975668;28;20218;-46
2022/03/03 06:16:43;;;;;;;54.93;24.47;;;0.00;99.90;;;;;;4994360;28;20221;-45
2022/03/03 06:19:12;;;;;;;51.87;24.23;;;-0.10;99.90;;;;;;4999958;28;20214;-45
2022/03/03 06:21:39;;;;;;;49.07;23.23;;;-0.10;99.90;;;;;;4985904;28;20444;-45
2022/03/03 06:24:06;;;;;;;52.37;25.27;;;0.00;99.90;;;;;;5018479;28;20212;-44
2022/03/03 06:26:36;;;;;;;52.20;24.50;;;0.00;99.90;;;;;;4999204;28;20538;-45
2022/03/03 06:29:03;;;;;;;59.37;26.53;;;0.10;99.90;;;;;;4986124;28;20398;-45
2022/03/03 06:31:30;;;;;;;46.93;24.80;;;0.20;99.90;;;;;;4985589;28;20281;-45
2022/03/03 06:33:57;;;;;;;54.63;26.57;;;0.20;99.90;;;;;;4994272;28;20348;-45
2022/03/03 06:36:26;;;;;;;52.30;27.87;;;0.20;99.90;;;;;;5004337;28;20280;-48
2022/03/03 06:38:53;;;;;;;54.70;26.50;;;0.20;99.90;;;;;;5016700;28;20511;-46
2022/03/03 06:41:20;;;;;;;50.67;27.30;;;0.20;99.90;;;;;;5016124;28;20261;-46
2022/03/03 06:43:47;;;;;;;49.93;24.33;;;0.20;99.90;;;;;;5002584;28;21122;-43
2022/03/03 06:46:18;;;;;;;51.93;25.70;;;0.00;99.90;;;;;;5002755;28;20260;-49
2022/03/03 06:48:45;;;;;;;51.50;24.73;;;-0.10;99.90;;;;;;5016341;28;20412;-43
2022/03/03 06:51:15;;;;;;;53.37;25.37;;;-0.20;99.90;;;;;;5010163;28;20273;-47
2022/03/03 06:53:46;;;;;;;48.73;24.87;;;-0.20;99.90;;;;;;5020269;28;20288;-47
2022/03/03 06:56:14;;;;;;;45.87;24.23;;;-0.30;99.90;;;;;;5015353;28;20208;-43
2022/03/03 06:58:41;;;;;;;48.30;24.37;;;-0.20;99.90;;;;;;5001266;28;20560;-46
2022/03/03 07:01:10;;;;;;;48.53;23.60;;;-0.30;99.90;;;;;;4991235;28;20285;-45
2022/03/03 07:03:37;;;;;;;51.93;25.03;;;-0.30;99.90;;;;;;5018949;28;20203;-47
2022/03/03 07:06:05;;;;;;;49.53;25.17;;;-0.30;99.90;;;;;;5008577;28;20522;-48
2022/03/03 07:08:33;;;;;;;45.13;23.93;;;-0.20;99.90;;;;;;4991983;28;20280;-44
2022/03/03 07:11:01;;;;;;;46.27;24.60;;;-0.20;99.90;;;;;;5007676;28;20221;-48
2022/03/03 07:13:28;;;;;;;44.07;23.90;;;-0.20;99.90;;;;;;4993755;28;20412;-49
2022/03/03 07:16:01;;;;;;;49.03;24.27;;;-0.20;99.90;;;;;;4986366;28;20531;-46
2022/03/03 07:18:36;;;;;;;50.13;24.67;;;-0.30;99.90;;;;;;4981640;28;20215;-49
2022/03/03 07:21:06;;;;;;;47.63;23.83;;;-0.30;99.90;;;;;;4987234;28;20237;-49
2022/03/03 07:23:36;;;;;;;48.03;24.70;;;-0.30;99.90;;;;;;5014399;28;20207;-44
2022/03/03 07:26:08;;;;;;;52.60;23.93;;;-0.30;99.90;;;;;;4993483;28;20226;-44
2022/03/03 07:28:35;;;;;;;53.83;26.03;;;-0.20;99.90;;;;;;5008892;28;20255;-44
2022/03/03 07:31:04;;;;;;;47.30;23.87;;;-0.30;99.90;;;;;;4991190;28;20428;-46
2022/03/03 07:33:48;;;;;;;51.70;24.87;;;-0.30;99.90;;;;;;5000384;28;20288;-46
2022/03/03 07:36:19;;;;;;;55.80;25.70;;;-0.40;99.90;;;;;;5013719;28;20512;-44
2022/03/03 07:38:56;;;;;;;44.87;24.37;;;-0.40;99.90;;;;;;5005591;28;20210;-45
2022/03/03 07:41:26;;;;;;;48.90;24.67;;;-0.30;99.90;;;;;;5008960;28;20234;-45
2022/03/03 07:43:53;;;;;;;53.60;24.57;;;-0.20;99.90;;;;;;5007995;28;20202;-46
2022/03/03 07:46:21;;;;;;;49.20;24.03;;;-0.20;99.90;;;;;;4991345;28;20439;-44
2022/03/03 07:48:50;;;;;;;47.80;24.30;;;-0.20;99.90;;;;;;5004035;28;20222;-46
2022/03/03 07:51:18;;;;;;;41.33;23.00;;;-0.10;99.90;;;;;;5018024;28;20218;-45
2022/03/03 07:53:45;;;;;;;52.47;24.97;;;0.00;99.90;;;;;;5013751;28;20237;-45
2022/03/03 07:56:16;;;;;;;49.73;23.70;;;0.00;99.90;;;;;;4999691;28;20968;-45
2022/03/03 07:58:47;;;;;;;47.40;25.30;;;0.10;99.90;;;;;;4998238;28;20206;-44
2022/03/03 08:01:17;;;;;;;44.90;22.93;;;0.10;99.90;;;;;;5000629;28;20641;-45
2022/03/03 08:03:46;;;;;;;46.90;23.63;;;0.10;99.90;;;;;;5004094;28;20213;-46
2022/03/03 08:06:15;;;;;;;48.67;24.53;;;0.20;99.90;;;;;;5001640;28;20385;-45
2022/03/03 08:08:43;;;;;;;47.27;23.27;;;0.20;99.90;;;;;;4996028;28;20525;-46
2022/03/03 08:11:10;;;;;;;71.03;23.63;;;0.10;99.90;;;;;;5016824;28;20203;-45
2022/03/03 08:13:37;;;;;;;54.43;24.73;;;0.00;99.90;;;;;;5001635;28;20234;-45
2022/03/03 08:16:06;;;;;;;74.30;25.57;;;0.00;99.90;;;;;;4978950;28;20725;-45
2022/03/03 08:18:35;;;;;;;56.73;22.33;;;-0.10;99.90;;;;;;5016760;28;20234;-45
2022/03/03 08:21:03;;;;;;;83.30;22.80;;;-0.10;99.90;;;;;;4996758;28;20254;-47
2022/03/03 08:23:31;;;;;;;110.30;22.83;;;-0.20;99.90;;;;;;5003092;28;20209;-43
2022/03/03 08:25:59;;;;;;;134.47;22.83;;;-0.20;99.90;;;;;;5010677;28;20257;-49
2022/03/03 08:28:26;;;;;;;69.60;20.70;;;-0.30;99.90;;;;;;4985822;28;20210;-45
2022/03/03 08:30:59;;;;;;;97.83;21.33;;;-0.30;99.90;;;;;;5004264;28;20234;-49
2022/03/03 08:33:37;;;;;;;126.27;22.63;;;-0.30;99.90;;;;;;5006064;28;21066;-44
2022/03/03 08:36:09;;;;;;;94.47;22.67;;;-0.30;99.90;;;;;;5000193;28;20820;-42
2022/03/03 08:38:39;;;;;;;57.27;25.27;;;-0.20;99.90;;;;;;5001665;28;20695;-45
2022/03/03 08:41:06;;;;;;;61.53;23.87;;;0.50;99.90;;;;;;5014135;28;20777;-45
2022/03/03 08:43:34;;;;;;;46.43;24.83;;;0.50;99.90;;;;;;4999260;28;20285;-45
2022/03/03 08:46:05;;;;;;;43.77;24.40;;;0.60;99.90;;;;;;4994332;28;20515;-44
2022/03/03 08:48:34;;;;;;;48.33;26.07;;;0.90;99.90;;;;;;5000959;28;20202;-44
2022/03/03 08:51:02;;;;;;;51.40;27.30;;;1.10;99.90;;;;;;4997015;28;20213;-44
2022/03/03 08:53:29;;;;;;;58.10;28.47;;;1.20;99.90;;;;;;5020726;28;20286;-45
2022/03/03 08:55:58;;;;;;;56.17;29.47;;;1.20;99.90;;;;;;5003339;28;20226;-49
2022/03/03 08:58:25;;;;;;;49.10;28.13;;;1.30;99.90;;;;;;5011861;28;20229;-48
2022/03/03 09:00:53;;;;;;;48.73;27.07;;;1.40;99.90;;;;;;4983060;28;20285;-49
2022/03/03 09:03:22;;;;;;;60.83;29.93;;;1.50;99.90;;;;;;4996654;28;20288;-45
2022/03/03 09:05:51;;;;;;;51.93;28.83;;;1.60;99.90;;;;;;5010526;28;20232;-49
2022/03/03 09:08:18;;;;;;;57.80;28.50;;;1.60;99.90;;;;;;4990997;28;20203;-44
2022/03/03 09:10:45;;;;;;;52.90;27.77;;;1.60;99.90;;;;;;4997461;28;20282;-48
2022/03/03 09:13:12;;;;;;;53.10;26.70;;;1.70;99.90;;;;;;5000401;28;20819;-46
2022/03/03 09:15:39;;;;;;;55.70;27.67;;;1.80;99.90;;;;;;4988394;28;20215;-44
2022/03/03 09:18:06;;;;;;;54.47;26.43;;;1.80;99.90;;;;;;4994893;28;20208;-46
2022/03/03 09:20:34;;;;;;;53.07;26.97;;;1.80;99.90;;;;;;5006361;28;20289;-45
2022/03/03 09:23:03;;;;;;;59.40;28.27;;;1.80;99.90;;;;;;4980799;28;20258;-48
2022/03/03 09:25:30;;;;;;;50.27;27.83;;;2.00;99.90;;;;;;5008817;28;20225;-43
2022/03/03 09:27:58;;;;;;;48.50;26.63;;;2.00;99.90;;;;;;4994198;28;20344;-49
2022/03/03 09:30:25;;;;;;;50.53;25.50;;;2.10;99.90;;;;;;5002593;28;20202;-49
2022/03/03 09:32:52;;;;;;;49.83;26.13;;;2.10;99.90;;;;;;4989321;28;20305;-48
2022/03/03 09:35:19;;;;;;;48.53;25.73;;;2.20;99.90;;;;;;4998436;28;20557;-45
2022/03/03 09:37:46;;;;;;;51.30;26.13;;;2.20;99.90;;;;;;4985852;28;20221;-48
2022/03/03 09:40:14;;;;;;;46.33;25.37;;;2.30;99.90;;;;;;5006198;28;20621;-45
2022/03/03 09:42:41;;;;;;;57.33;28.57;;;2.30;99.90;;;;;;5011609;28;20633;-44
2022/03/03 09:45:10;;;;;;;47.20;25.93;;;2.40;99.90;;;;;;5004482;28;20447;-44
2022/03/03 09:47:39;;;;;;;53.57;27.80;;;2.40;99.90;;;;;;5005704;28;20214;-43
2022/03/03 09:50:08;;;;;;;54.10;29.17;;;2.50;99.90;;;;;;4999752;28;20220;-47
2022/03/03 09:52:35;;;;;;;50.73;26.53;;;2.60;99.90;;;;;;4990853;28;20569;-45
2022/03/03 09:55:04;;;;;;;48.47;25.77;;;2.60;99.90;;;;;;4989335;28;20229;-49
2022/03/03 09:57:35;;;;;;;44.70;25.10;;;2.60;99.90;;;;;;5019475;28;20545;-44
2022/03/03 10:00:03;;;;;;;56.20;27.57;;;2.70;99.90;;;;;;4998150;28;20212;-47
2022/03/03 10:02:30;;;;;;;48.07;25.17;;;2.70;99.90;;;;;;5002557;28;20260;-43
2022/03/03 10:04:57;;;;;;;51.00;26.97;;;2.80;99.90;;;;;;4999816;28;20232;-47
2022/03/03 10:07:25;;;;;;;47.67;25.83;;;2.80;99.90;;;;;;4992592;28;20212;-44
2022/03/03 10:10:11;;;;;;;55.40;27.23;;;2.80;99.90;;;;;;5002144;28;20219;-49
2022/03/03 10:12:45;;;;;;;45.20;24.63;;;2.80;99.90;;;;;;5013409;28;20554;-43
2022/03/03 10:15:17;;;;;;;48.77;26.53;;;3.10;99.90;;;;;;4992081;28;20414;-44
2022/03/03 10:17:44;;;;;;;43.83;24.53;;;3.20;99.90;;;;;;4993163;28;20213;-49
2022/03/03 10:20:12;;;;;;;45.93;25.77;;;3.20;99.90;;;;;;5001855;28;20212;-46
2022/03/03 10:22:41;;;;;;;44.23;24.93;;;3.20;99.90;;;;;;4996440;28;20236;-45
2022/03/03 10:25:09;;;;;;;48.30;25.13;;;3.30;99.90;;;;;;4980155;28;20213;-45
2022/03/03 10:27:36;;;;;;;41.60;24.77;;;3.40;99.90;;;;;;5020045;28;20209;-47
2022/03/03 10:30:08;;;;;;;41.30;23.07;;;3.40;99.90;;;;;;5000040;28;20291;-45
2022/03/03 10:32:36;;;;;;;41.60;23.17;;;3.40;99.90;;;;;;5014264;28;20296;-45
2022/03/03 10:35:13;;;;;;;40.83;23.47;;;3.50;99.90;;;;;;4996164;28;20438;-45
2022/03/03 10:37:40;;;;;;;38.80;22.80;;;3.60;99.90;;;;;;5001655;28;20210;-53
2022/03/03 10:40:12;;;;;;;42.83;22.47;;;3.60;99.90;;;;;;4987846;28;20630;-46
2022/03/03 10:42:43;;;;;;;36.27;20.00;;;3.80;99.90;;;;;;5007248;28;20389;-43
2022/03/03 10:45:15;;;;;;;36.00;18.37;;;3.90;99.90;;;;;;4984306;28;22596;-49
2022/03/03 10:47:45;;;;;;;29.10;16.07;;;4.00;99.90;;;;;;5014804;28;20456;-47
2022/03/03 10:50:12;;;;;;;26.00;14.00;;;3.90;99.90;;;;;;4983346;28;20228;-45
2022/03/03 10:52:40;;;;;;;23.40;12.60;;;4.00;99.90;;;;;;5002971;28;20757;-45
2022/03/03 10:55:12;;;;;;;21.63;12.07;;;4.10;99.90;;;;;;4988458;28;20519;-45
2022/03/03 10:57:42;;;;;;;20.20;10.83;;;4.30;99.90;;;;;;5003001;28;20214;-46
2022/03/03 11:00:14;;;;;;;19.07;9.03;;;4.30;99.90;;;;;;5010281;28;20223;-43
2022/03/03 11:02:43;;;;;;;16.33;8.10;;;4.40;99.90;;;;;;4994160;28;21875;-47
2022/03/03 11:05:11;;;;;;;14.57;8.30;;;4.50;99.90;;;;;;4998579;28;20332;-44
2022/03/03 11:07:42;;;;;;;18.23;8.97;;;4.50;99.90;;;;;;4993564;28;20432;-44
2022/03/03 11:10:10;;;;;;;14.63;8.57;;;4.70;99.90;;;;;;4979038;28;20265;-46
2022/03/03 11:12:38;;;;;;;15.30;8.37;;;4.70;99.90;;;;;;5018008;28;20587;-44
2022/03/03 11:15:05;;;;;;;11.83;6.57;;;4.70;99.90;;;;;;5003649;28;20484;-44
2022/03/03 11:17:35;;;;;;;13.43;7.53;;;4.80;99.90;;;;;;5026643;28;20195;-47
2022/03/03 11:20:03;;;;;;;16.87;7.43;;;4.80;99.90;;;;;;5004596;28;20230;-48
2022/03/03 11:22:34;;;;;;;13.17;7.50;;;4.90;99.90;;;;;;4995272;28;20359;-43
2022/03/03 11:25:04;;;;;;;13.77;7.30;;;4.90;99.90;;;;;;5000224;28;20624;-48
2022/03/03 11:27:35;;;;;;;12.03;6.60;;;5.00;99.90;;;;;;5003257;28;20231;-45
2022/03/03 11:30:30;;;;;;;9.03;5.93;;;5.10;99.90;;;;;;5006440;28;20289;-45
2022/03/03 11:33:21;;;;;;;11.93;6.77;;;5.10;99.90;;;;;;5018476;28;20591;-44
2022/03/03 11:35:50;;;;;;;10.30;5.60;;;5.10;99.90;;;;;;5012340;28;20313;-44
2022/03/03 11:38:17;;;;;;;8.90;4.73;;;5.20;99.90;;;;;;5002922;28;20431;-45
2022/03/03 11:40:55;;;;;;;9.33;4.80;;;5.30;99.90;;;;;;5015957;28;20407;-45
2022/03/03 11:43:22;;;;;;;5.97;4.53;;;5.30;99.90;;;;;;4999612;28;20493;-45
2022/03/03 11:45:51;;;;;;;7.83;4.77;;;5.40;99.90;;;;;;5000892;28;20230;-45
2022/03/03 11:48:19;;;;;;;9.10;5.00;;;5.40;99.90;;;;;;5014211;28;20217;-46
2022/03/03 11:50:49;;;;;;;11.10;5.00;;;5.50;99.90;;;;;;5003331;28;20427;-45
2022/03/03 11:53:24;;;;;;;9.73;4.77;;;5.50;99.90;;;;;;4986209;28;20635;-44
2022/03/03 11:56:02;;;;;;;5.70;3.83;;;5.60;99.90;;;;;;4987150;28;20273;-45
2022/03/03 11:58:34;;;;;;;8.20;4.37;;;5.80;99.90;;;;;;4997683;28;20240;-44
2022/03/03 12:01:09;;;;;;;7.03;3.93;;;5.80;99.90;;;;;;5010359;28;20533;-45
2022/03/03 12:03:59;;;;;;;7.73;3.83;;;5.80;99.90;;;;;;5003697;28;20235;-44
2022/03/03 12:06:37;;;;;;;6.27;3.67;;;6.00;99.90;;;;;;5004281;28;20401;-45
2022/03/03 12:09:17;;;;;;;5.87;3.30;;;6.00;99.90;;;;;;4999088;28;20292;-46
2022/03/03 12:11:44;;;;;;;5.03;3.07;;;6.20;99.90;;;;;;4989794;28;20235;-46
2022/03/03 12:14:31;;;;;;;4.97;2.87;;;6.20;99.90;;;;;;4998788;28;20218;-45
2022/03/03 12:17:32;;;;;;;7.10;3.87;;;6.20;99.90;;;;;;5008068;28;20221;-45
2022/03/03 12:20:34;;;;;;;4.67;3.13;;;6.20;99.90;;;;;;5020550;28;20210;-46
2022/03/03 12:23:13;;;;;;;5.03;2.53;;;6.50;99.90;;;;;;5013354;28;20217;-45
2022/03/03 12:26:08;;;;;;;4.80;2.87;;;6.60;99.90;;;;;;4972635;28;20700;-45
2022/03/03 12:28:40;;;;;;;7.67;3.10;;;6.70;99.90;;;;;;4966044;28;20247;-46
2022/03/03 12:31:22;;;;;;;4.87;2.90;;;6.70;99.90;;;;;;4997236;28;20206;-45
2022/03/03 12:34:01;;;;;;;6.77;3.07;;;6.70;99.90;;;;;;5003795;28;20654;-46
2022/03/03 12:36:30;;;;;;;11.63;3.87;;;6.70;99.90;;;;;;5012288;28;20251;-47
2022/03/03 12:38:59;;;;;;;4.57;3.23;;;6.70;99.90;;;;;;4991061;28;20387;-45
2022/03/03 12:41:27;;;;;;;7.80;3.80;;;6.70;99.90;;;;;;5003501;28;20233;-44
2022/03/03 12:44:02;;;;;;;9.20;4.33;;;6.70;99.90;;;;;;5010308;28;20344;-46
2022/03/03 12:46:32;;;;;;;7.77;4.20;;;6.60;99.90;;;;;;4977290;28;25145;-45
2022/03/03 12:49:02;;;;;;;5.77;4.30;;;6.70;99.90;;;;;;5015275;28;20209;-45
2022/03/03 12:51:31;;;;;;;8.03;4.73;;;6.70;99.90;;;;;;5001850;28;20610;-46